sensor_id;sensor_type;location;lat;lon;timestamp;pressure;altitude;pressure_sealevel;temperature
26158;BMP280;67284;44.782;10.282;2023-04-01T00:02:00;99858.63;;;13.98
26158;BMP280;67284;44.782;10.282;2023-04-01T00:06:52;99868.13;;;13.98
26158;BMP280;67284;44.782;10.282;2023-04-01T00:11:44;99871.72;;;13.94
26158;BMP280;67284;44.782;10.282;2023-04-01T00:16:37;99853.78;;;13.89
26158;BMP280;67284;44.782;10.282;2023-04-01T00:21:29;99862.56;;;13.85
26158;BMP280;67284;44.782;10.282;2023-04-01T00:26:21;99856.56;;;13.85
26158;BMP280;67284;44.782;10.282;2023-04-01T00:31:14;99859.19;;;13.83
26158;BMP280;67284;44.782;10.282;2023-04-01T00:36:10;99863.50;;;13.83
26158;BMP280;67284;44.782;10.282;2023-04-01T00:41:04;99867.84;;;13.82
26158;BMP280;67284;44.782;10.282;2023-04-01T00:45:57;99852.44;;;13.79
26158;BMP280;67284;44.782;10.282;2023-04-01T00:50:53;99852.56;;;13.76
26158;BMP280;67284;44.782;10.282;2023-04-01T00:55:53;99850.91;;;13.74
26158;BMP280;67284;44.782;10.282;2023-04-01T01:00:48;99850.09;;;13.72
26158;BMP280;67284;44.782;10.282;2023-04-01T01:05:54;99842.41;;;13.70
26158;BMP280;67284;44.782;10.282;2023-04-01T01:10:49;99837.22;;;13.70
26158;BMP280;67284;44.782;10.282;2023-04-01T01:15:48;99837.19;;;13.72
26158;BMP280;67284;44.782;10.282;2023-04-01T01:26:40;99801.84;;;13.72
26158;BMP280;67284;44.782;10.282;2023-04-01T01:31:37;99795.78;;;13.73
26158;BMP280;67284;44.782;10.282;2023-04-01T01:36:32;99794.94;;;13.73
26158;BMP280;67284;44.782;10.282;2023-04-01T01:41:32;99802.75;;;13.71
26158;BMP280;67284;44.782;10.282;2023-04-01T01:46:26;99793.28;;;13.70
26158;BMP280;67284;44.782;10.282;2023-04-01T01:51:21;99794.09;;;13.72
26158;BMP280;67284;44.782;10.282;2023-04-01T01:56:13;99804.44;;;13.72
26158;BMP280;67284;44.782;10.282;2023-04-01T02:01:29;99800.16;;;13.71
26158;BMP280;67284;44.782;10.282;2023-04-01T02:06:32;99790.69;;;13.70
26158;BMP280;67284;44.782;10.282;2023-04-01T02:11:37;99804.66;;;13.66
26158;BMP280;67284;44.782;10.282;2023-04-01T02:16:46;99808.13;;;13.65
26158;BMP280;67284;44.782;10.282;2023-04-01T02:21:41;99812.44;;;13.65
26158;BMP280;67284;44.782;10.282;2023-04-01T02:26:34;99819.31;;;13.66
26158;BMP280;67284;44.782;10.282;2023-04-01T02:31:27;99825.44;;;13.63
26158;BMP280;67284;44.782;10.282;2023-04-01T02:36:19;99834.09;;;13.62
26158;BMP280;67284;44.782;10.282;2023-04-01T02:41:12;99837.69;;;13.58
26158;BMP280;67284;44.782;10.282;2023-04-01T02:46:04;99855.06;;;13.53
26158;BMP280;67284;44.782;10.282;2023-04-01T02:50:56;99862.94;;;13.51
26158;BMP280;67284;44.782;10.282;2023-04-01T02:55:48;99863.00;;;13.49
26158;BMP280;67284;44.782;10.282;2023-04-01T03:00:42;99868.22;;;13.48
26158;BMP280;67284;44.782;10.282;2023-04-01T03:05:34;99869.22;;;13.44
26158;BMP280;67284;44.782;10.282;2023-04-01T03:10:26;99865.03;;;13.40
26158;BMP280;67284;44.782;10.282;2023-04-01T03:15:18;99869.59;;;13.33
26158;BMP280;67284;44.782;10.282;2023-04-01T03:20:10;99866.25;;;13.30
26158;BMP280;67284;44.782;10.282;2023-04-01T03:25:04;99875.75;;;13.29
26158;BMP280;67284;44.782;10.282;2023-04-01T03:29:56;99879.16;;;13.30
26158;BMP280;67284;44.782;10.282;2023-04-01T03:34:48;99898.09;;;13.30
26158;BMP280;67284;44.782;10.282;2023-04-01T03:39:40;99870.69;;;13.26
26158;BMP280;67284;44.782;10.282;2023-04-01T03:44:35;99886.34;;;13.22
26158;BMP280;67284;44.782;10.282;2023-04-01T03:49:27;99884.66;;;13.21
26158;BMP280;67284;44.782;10.282;2023-04-01T03:54:19;99900.09;;;13.22
26158;BMP280;67284;44.782;10.282;2023-04-01T03:59:12;99907.13;;;13.17
26158;BMP280;67284;44.782;10.282;2023-04-01T04:04:04;99891.75;;;13.14
26158;BMP280;67284;44.782;10.282;2023-04-01T04:08:56;99891.75;;;13.14
26158;BMP280;67284;44.782;10.282;2023-04-01T04:13:48;99891.78;;;13.13
26158;BMP280;67284;44.782;10.282;2023-04-01T04:18:40;99901.38;;;13.09
26158;BMP280;67284;44.782;10.282;2023-04-01T04:23:32;99901.53;;;13.05
26158;BMP280;67284;44.782;10.282;2023-04-01T04:28:26;99912.81;;;13.02
26158;BMP280;67284;44.782;10.282;2023-04-01T04:33:22;99924.97;;;12.99
26158;BMP280;67284;44.782;10.282;2023-04-01T04:38:14;99924.06;;;13.00
26158;BMP280;67284;44.782;10.282;2023-04-01T04:43:10;99923.97;;;13.03
26158;BMP280;67284;44.782;10.282;2023-04-01T04:48:03;99930.94;;;13.01
26158;BMP280;67284;44.782;10.282;2023-04-01T04:52:56;99927.44;;;13.02
26158;BMP280;67284;44.782;10.282;2023-04-01T04:57:48;99937.75;;;13.03
26158;BMP280;67284;44.782;10.282;2023-04-01T05:02:40;99930.00;;;13.03
26158;BMP280;67284;44.782;10.282;2023-04-01T05:07:33;99927.50;;;13.00
26158;BMP280;67284;44.782;10.282;2023-04-01T05:12:24;99921.59;;;12.97
26158;BMP280;67284;44.782;10.282;2023-04-01T05:17:23;99932.94;;;12.92
26158;BMP280;67284;44.782;10.282;2023-04-01T05:22:16;99936.41;;;12.91
26158;BMP280;67284;44.782;10.282;2023-04-01T05:27:08;99944.06;;;12.94
26158;BMP280;67284;44.782;10.282;2023-04-01T05:32:03;99941.44;;;12.95
26158;BMP280;67284;44.782;10.282;2023-04-01T05:36:55;99954.38;;;12.94
26158;BMP280;67284;44.782;10.282;2023-04-01T05:41:47;99963.97;;;12.90
26158;BMP280;67284;44.782;10.282;2023-04-01T05:46:39;99949.41;;;12.88
26158;BMP280;67284;44.782;10.282;2023-04-01T05:51:48;99957.22;;;12.86
26158;BMP280;67284;44.782;10.282;2023-04-01T05:56:40;99950.31;;;12.87
26158;BMP280;67284;44.782;10.282;2023-04-01T06:01:32;99952.88;;;12.87
26158;BMP280;67284;44.782;10.282;2023-04-01T06:06:27;99967.53;;;12.86
26158;BMP280;67284;44.782;10.282;2023-04-01T06:38:07;99978.69;;;12.88
26158;BMP280;67284;44.782;10.282;2023-04-01T06:49:27;99982.84;;;12.92
26158;BMP280;67284;44.782;10.282;2023-04-01T06:54:21;99986.25;;;12.94
26158;BMP280;67284;44.782;10.282;2023-04-01T06:59:36;99991.22;;;13.00
26158;BMP280;67284;44.782;10.282;2023-04-01T07:04:35;99980.88;;;13.00
26158;BMP280;67284;44.782;10.282;2023-04-01T07:09:38;99975.72;;;13.00
26158;BMP280;67284;44.782;10.282;2023-04-01T07:14:50;99974.78;;;13.02
26158;BMP280;67284;44.782;10.282;2023-04-01T07:24:49;99949.00;;;13.01
26158;BMP280;67284;44.782;10.282;2023-04-01T07:29:42;99953.25;;;13.03
26158;BMP280;67284;44.782;10.282;2023-04-01T08:00:27;99966.94;;;13.31
26158;BMP280;67284;44.782;10.282;2023-04-01T08:05:46;99972.88;;;13.35
26158;BMP280;67284;44.782;10.282;2023-04-01T08:11:12;99970.16;;;13.39
26158;BMP280;67284;44.782;10.282;2023-04-01T08:21:45;99963.03;;;13.46
26158;BMP280;67284;44.782;10.282;2023-04-01T08:26:42;99960.34;;;13.49
26158;BMP280;67284;44.782;10.282;2023-04-01T08:32:01;99950.75;;;13.52
26158;BMP280;67284;44.782;10.282;2023-04-01T08:37:00;99960.16;;;13.54
26158;BMP280;67284;44.782;10.282;2023-04-01T08:47:52;99959.59;;;13.71
26158;BMP280;67284;44.782;10.282;2023-04-01T08:53:10;99955.16;;;13.74
26158;BMP280;67284;44.782;10.282;2023-04-01T09:14:25;99973.63;;;13.88
26158;BMP280;67284;44.782;10.282;2023-04-01T09:19:42;99965.09;;;13.86
26158;BMP280;67284;44.782;10.282;2023-04-01T09:25:33;99961.59;;;13.87
26158;BMP280;67284;44.782;10.282;2023-04-01T09:30:31;99958.06;;;13.90
26158;BMP280;67284;44.782;10.282;2023-04-01T09:35:48;99958.81;;;13.93
26158;BMP280;67284;44.782;10.282;2023-04-01T09:46:48;99959.22;;;14.07
26158;BMP280;67284;44.782;10.282;2023-04-01T10:02:13;99954.72;;;14.12
26158;BMP280;67284;44.782;10.282;2023-04-01T10:28:42;99936.41;;;14.41
26158;BMP280;67284;44.782;10.282;2023-04-01T10:39:08;99923.84;;;14.53
26158;BMP280;67284;44.782;10.282;2023-04-01T10:49:43;99913.06;;;14.63
26158;BMP280;67284;44.782;10.282;2023-04-01T10:54:48;99910.31;;;14.68
26158;BMP280;67284;44.782;10.282;2023-04-01T11:42:55;99871.66;;;15.06
26158;BMP280;67284;44.782;10.282;2023-04-01T11:53:47;99858.50;;;15.10
26158;BMP280;67284;44.782;10.282;2023-04-01T12:09:24;99852.13;;;15.19
26158;BMP280;67284;44.782;10.282;2023-04-01T12:19:42;99846.44;;;15.31
26158;BMP280;67284;44.782;10.282;2023-04-01T12:45:34;99834.78;;;15.61
26158;BMP280;67284;44.782;10.282;2023-04-01T12:55:29;99816.25;;;15.50
26158;BMP280;67284;44.782;10.282;2023-04-01T13:11:09;99791.88;;;15.54
26158;BMP280;67284;44.782;10.282;2023-04-01T13:16:07;99788.22;;;15.58
26158;BMP280;67284;44.782;10.282;2023-04-01T13:21:26;99784.59;;;15.62
26158;BMP280;67284;44.782;10.282;2023-04-01T13:31:53;99773.91;;;15.49
26158;BMP280;67284;44.782;10.282;2023-04-01T13:37:11;99776.06;;;15.60
26158;BMP280;67284;44.782;10.282;2023-04-01T13:42:17;99770.72;;;15.63
26158;BMP280;67284;44.782;10.282;2023-04-01T14:02:46;99773.03;;;15.68
26158;BMP280;67284;44.782;10.282;2023-04-01T14:12:46;99771.84;;;15.75
26158;BMP280;67284;44.782;10.282;2023-04-01T14:17:46;99756.09;;;15.80
26158;BMP280;67284;44.782;10.282;2023-04-01T14:44:01;99740.94;;;15.89
26158;BMP280;67284;44.782;10.282;2023-04-01T14:48:59;99741.66;;;15.93
26158;BMP280;67284;44.782;10.282;2023-04-01T14:59:27;99739.75;;;15.96
26158;BMP280;67284;44.782;10.282;2023-04-01T15:09:56;99734.34;;;16.01
26158;BMP280;67284;44.782;10.282;2023-04-01T15:36:04;99722.34;;;15.98
26158;BMP280;67284;44.782;10.282;2023-04-01T15:46:49;99723.56;;;15.91
26158;BMP280;67284;44.782;10.282;2023-04-01T15:51:48;99721.97;;;15.89
26158;BMP280;67284;44.782;10.282;2023-04-01T16:07:07;99716.50;;;15.76
26158;BMP280;67284;44.782;10.282;2023-04-01T16:27:20;99721.69;;;15.76
26158;BMP280;67284;44.782;10.282;2023-04-01T16:37:34;99728.56;;;15.77
26158;BMP280;67284;44.782;10.282;2023-04-01T16:42:49;99738.13;;;15.75
26158;BMP280;67284;44.782;10.282;2023-04-01T16:47:49;99729.81;;;15.69
26158;BMP280;67284;44.782;10.282;2023-04-01T16:52:57;99732.53;;;15.66
26158;BMP280;67284;44.782;10.282;2023-04-01T16:57:55;99724.97;;;15.62
26158;BMP280;67284;44.782;10.282;2023-04-01T17:03:12;99725.75;;;15.63
26158;BMP280;67284;44.782;10.282;2023-04-01T17:13:41;99723.53;;;15.55
26158;BMP280;67284;44.782;10.282;2023-04-01T17:24:12;99719.28;;;15.54
26158;BMP280;67284;44.782;10.282;2023-04-01T17:29:24;99737.53;;;15.51
26158;BMP280;67284;44.782;10.282;2023-04-01T17:34:41;99733.38;;;15.48
26158;BMP280;67284;44.782;10.282;2023-04-01T17:39:41;99721.50;;;15.43
26158;BMP280;67284;44.782;10.282;2023-04-01T17:54:52;99730.75;;;15.30
26158;BMP280;67284;44.782;10.282;2023-04-01T18:10:46;99739.00;;;15.18
26158;BMP280;67284;44.782;10.282;2023-04-01T18:15:56;99741.72;;;15.15
26158;BMP280;67284;44.782;10.282;2023-04-01T18:21:30;99744.44;;;15.12
26158;BMP280;67284;44.782;10.282;2023-04-01T18:26:49;99750.53;;;15.11
26158;BMP280;67284;44.782;10.282;2023-04-01T18:31:46;99751.50;;;15.08
26158;BMP280;67284;44.782;10.282;2023-04-01T18:36:53;99752.50;;;15.06
26158;BMP280;67284;44.782;10.282;2023-04-01T18:42:03;99751.69;;;15.04
26158;BMP280;67284;44.782;10.282;2023-04-01T18:47:27;99743.91;;;15.04
26158;BMP280;67284;44.782;10.282;2023-04-01T18:52:44;99744.81;;;15.03
26158;BMP280;67284;44.782;10.282;2023-04-01T18:57:49;99762.13;;;15.03
26158;BMP280;67284;44.782;10.282;2023-04-01T19:02:46;99746.59;;;15.03
26158;BMP280;67284;44.782;10.282;2023-04-01T19:07:47;99758.84;;;14.99
26158;BMP280;67284;44.782;10.282;2023-04-01T19:28:59;99767.56;;;14.97
26158;BMP280;67284;44.782;10.282;2023-04-01T19:34:14;99769.38;;;14.95
26158;BMP280;67284;44.782;10.282;2023-04-01T20:10:32;99770.22;;;14.75
26158;BMP280;67284;44.782;10.282;2023-04-01T20:15:36;99767.66;;;14.74
26158;BMP280;67284;44.782;10.282;2023-04-01T20:20:30;99774.59;;;14.73
26158;BMP280;67284;44.782;10.282;2023-04-01T20:25:33;99775.38;;;14.75
26158;BMP280;67284;44.782;10.282;2023-04-01T20:51:39;99783.19;;;14.74
26158;BMP280;67284;44.782;10.282;2023-04-01T21:01:44;99785.75;;;14.75
26158;BMP280;67284;44.782;10.282;2023-04-01T21:11:41;99778.81;;;14.76
26158;BMP280;67284;44.782;10.282;2023-04-01T21:21:58;99783.25;;;14.72
26158;BMP280;67284;44.782;10.282;2023-04-01T21:53:04;99795.00;;;14.59
26158;BMP280;67284;44.782;10.282;2023-04-01T22:14:05;99803.91;;;14.53
26158;BMP280;67284;44.782;10.282;2023-04-01T22:19:19;99802.25;;;14.52
26158;BMP280;67284;44.782;10.282;2023-04-01T22:24:28;99802.34;;;14.49
26158;BMP280;67284;44.782;10.282;2023-04-01T22:40:25;99803.34;;;14.46
26158;BMP280;67284;44.782;10.282;2023-04-01T22:50:24;99797.34;;;14.44
26158;BMP280;67284;44.782;10.282;2023-04-01T22:55:22;99805.97;;;14.45
26158;BMP280;67284;44.782;10.282;2023-04-01T23:00:20;99802.59;;;14.43
26158;BMP280;67284;44.782;10.282;2023-04-01T23:05:17;99805.25;;;14.41
26158;BMP280;67284;44.782;10.282;2023-04-01T23:10:16;99805.38;;;14.38
26158;BMP280;67284;44.782;10.282;2023-04-01T23:15:13;99807.13;;;14.38
26158;BMP280;67284;44.782;10.282;2023-04-01T23:35:32;99867.59;;;14.35
26158;BMP280;67284;44.782;10.282;2023-04-01T23:40:25;99872.81;;;14.34
26158;BMP280;67284;44.782;10.282;2023-04-01T23:45:18;99855.72;;;14.30
26158;BMP280;67284;44.782;10.282;2023-04-01T23:50:24;99876.44;;;14.30
26158;BMP280;67284;44.782;10.282;2023-04-01T23:55:19;99866.91;;;14.30
